createdAt,value
2018-06-11T00:01:48.529Z,75.03
2018-06-11T00:04:18.244Z,75.10
2018-06-11T00:06:47.888Z,75.07
2018-06-11T00:09:17.507Z,75.34
2018-06-11T00:11:47.196Z,75.03
2018-06-11T00:14:16.808Z,75.55
2018-06-11T00:16:46.462Z,75.20
2018-06-11T00:19:16.140Z,75.63
2018-06-11T00:21:45.777Z,75.46
2018-06-11T00:24:18.413Z,75.51
2018-06-11T00:26:48.115Z,75.49
2018-06-11T00:29:17.758Z,75.42
2018-06-11T00:31:47.385Z,75.56
2018-06-11T00:34:17.080Z,75.45
2018-06-11T00:36:46.707Z,75.56
2018-06-11T00:39:16.340Z,75.68
2018-06-11T00:41:46.039Z,75.12
2018-06-11T00:44:15.688Z,74.23
2018-06-11T00:46:45.397Z,75.03
2018-06-11T00:49:15.036Z,74.51
2018-06-11T00:51:44.692Z,74.74
2018-06-11T00:54:14.389Z,74.86
2018-06-11T00:56:44.023Z,74.10
2018-06-11T00:59:13.669Z,74.45
2018-06-11T01:01:43.346Z,74.65
2018-06-11T01:04:12.998Z,74.50
2018-06-11T01:06:42.644Z,73.99
2018-06-11T01:09:12.656Z,74.45
2018-06-11T01:11:42.271Z,74.23
2018-06-11T01:14:11.921Z,74.63
2018-06-11T01:16:41.638Z,74.48
2018-06-11T01:19:11.296Z,74.80
2018-06-11T01:21:41.002Z,74.24
2018-06-11T01:24:10.717Z,74.32
2018-06-11T01:26:40.345Z,74.15
2018-06-11T01:29:09.983Z,74.78
2018-06-11T01:31:39.697Z,74.69
2018-06-11T01:34:09.355Z,74.50
2018-06-11T01:36:38.999Z,74.03
2018-06-11T01:39:08.827Z,74.24
2018-06-11T01:41:38.487Z,74.38
2018-06-11T01:44:08.153Z,74.30
2018-06-11T01:46:37.816Z,73.52
2018-06-11T01:49:07.469Z,74.23
2018-06-11T01:51:37.158Z,74.61
2018-06-11T01:54:06.818Z,74.92
2018-06-11T01:56:36.524Z,73.61
2018-06-11T01:59:06.179Z,73.74
2018-06-11T02:01:35.812Z,73.24
2018-06-11T02:04:05.728Z,73.99
2018-06-11T02:06:35.396Z,73.47
2018-06-11T02:09:06.342Z,74.28
2018-06-11T02:11:36.226Z,73.58
2018-06-11T02:14:05.893Z,73.57
2018-06-11T02:16:35.615Z,73.34
2018-06-11T02:19:05.296Z,73.98
2018-06-11T02:21:34.928Z,73.54
2018-06-11T02:24:04.820Z,73.54
2018-06-11T02:26:34.468Z,72.89
2018-06-11T02:29:04.171Z,72.03
2018-06-11T02:31:33.799Z,72.45
2018-06-11T02:34:03.544Z,71.81
2018-06-11T02:36:33.229Z,72.95
2018-06-11T02:39:02.955Z,72.21
2018-06-11T02:41:32.612Z,72.57
2018-06-11T02:44:02.272Z,72.10
2018-06-11T02:46:31.970Z,72.48
2018-06-11T02:49:01.606Z,72.74
2018-06-11T02:51:31.305Z,72.58
2018-06-11T02:54:00.947Z,72.73
2018-06-11T02:56:30.680Z,72.62
2018-06-11T02:59:00.364Z,72.47
2018-06-11T03:01:30.085Z,73.43
2018-06-11T03:03:59.791Z,72.19
2018-06-11T03:06:29.488Z,72.67
2018-06-11T03:08:59.190Z,73.24
2018-06-11T03:11:28.830Z,72.23
2018-06-11T03:13:58.494Z,72.58
2018-06-11T03:16:28.158Z,71.92
2018-06-11T03:18:57.822Z,72.69
2018-06-11T03:21:27.470Z,72.05
2018-06-11T03:23:57.157Z,72.16
2018-06-11T03:26:26.797Z,72.01
2018-06-11T03:28:56.464Z,71.75
2018-06-11T03:31:26.094Z,71.98
2018-06-11T03:33:55.726Z,71.76
2018-06-11T03:36:25.504Z,72.10
2018-06-11T03:38:55.131Z,72.33
2018-06-11T03:41:24.761Z,71.68
2018-06-11T03:43:54.591Z,72.99
2018-06-11T03:46:24.255Z,72.56
2018-06-11T03:48:53.896Z,73.13
2018-06-11T03:51:23.613Z,72.16
2018-06-11T03:53:53.272Z,72.11
2018-06-11T03:56:22.918Z,71.22
2018-06-11T03:58:52.692Z,72.35
2018-06-11T04:01:22.345Z,71.99
2018-06-11T04:03:51.996Z,72.17
2018-06-11T04:06:21.804Z,71.48
2018-06-11T04:08:51.443Z,71.51
2018-06-11T04:11:21.152Z,71.23
2018-06-11T04:13:50.780Z,71.97
2018-06-11T04:16:20.793Z,71.69
2018-06-11T04:18:50.486Z,71.17
2018-06-11T04:21:20.140Z,71.85
2018-06-11T04:23:49.765Z,71.75
2018-06-11T04:26:19.457Z,71.33
2018-06-11T04:28:49.092Z,71.25
2018-06-11T04:31:18.747Z,71.45
2018-06-11T04:33:48.455Z,71.34
2018-06-11T04:36:18.596Z,71.45
2018-06-11T04:38:48.284Z,71.02
2018-06-11T04:41:17.920Z,72.10
2018-06-11T04:43:47.552Z,72.23
2018-06-11T04:46:17.213Z,72.46
2018-06-11T04:48:46.848Z,72.81
2018-06-11T04:51:16.500Z,71.63
2018-06-11T04:53:46.222Z,71.68
2018-06-11T04:56:15.856Z,71.71
2018-06-11T04:58:45.517Z,71.92
2018-06-11T05:01:15.256Z,71.98
2018-06-11T05:03:44.936Z,72.20
2018-06-11T05:06:14.568Z,71.40
2018-06-11T05:08:44.295Z,72.45
2018-06-11T05:11:13.920Z,72.30
2018-06-11T05:13:43.571Z,72.39
2018-06-11T05:16:13.293Z,72.05
2018-06-11T05:18:42.932Z,71.53
2018-06-11T05:21:12.580Z,71.53
2018-06-11T05:23:42.276Z,71.66
2018-06-11T05:26:11.939Z,71.94
2018-06-11T05:28:41.651Z,71.47
2018-06-11T05:31:11.327Z,71.44
2018-06-11T05:33:41.044Z,72.25
2018-06-11T05:36:10.696Z,72.58
2018-06-11T05:38:40.396Z,72.77
2018-06-11T05:41:10.057Z,72.92
2018-06-11T05:43:39.689Z,72.47
2018-06-11T05:46:09.369Z,72.28
2018-06-11T05:48:39.009Z,72.15
2018-06-11T05:51:08.644Z,71.55
2018-06-11T05:53:38.337Z,72.07
2018-06-11T05:56:07.981Z,70.80
2018-06-11T05:58:37.905Z,71.11
2018-06-11T06:01:07.568Z,71.85
2018-06-11T06:03:37.256Z,70.74
2018-06-11T06:06:06.916Z,70.39
2018-06-11T06:08:36.625Z,70.13
2018-06-11T06:11:06.296Z,70.50
2018-06-11T06:13:35.945Z,71.47
2018-06-11T06:16:05.594Z,70.99
2018-06-11T06:18:35.288Z,70.61
2018-06-11T06:21:04.961Z,70.96
2018-06-11T06:23:34.656Z,70.91
2018-06-11T06:26:04.369Z,71.00
2018-06-11T06:28:34.036Z,70.87
2018-06-11T06:31:03.717Z,71.09
2018-06-11T06:33:33.389Z,69.74
2018-06-11T06:36:03.091Z,71.36
2018-06-11T06:38:32.743Z,70.27
2018-06-11T06:41:02.422Z,69.58
2018-06-11T06:43:32.098Z,70.73
2018-06-11T06:46:01.741Z,70.88
2018-06-11T06:48:31.382Z,70.13
2018-06-11T06:51:01.084Z,69.97
2018-06-11T06:53:30.731Z,69.47
2018-06-11T06:56:00.373Z,68.50
2018-06-11T06:58:30.068Z,69.33
2018-06-11T07:00:59.692Z,69.64
2018-06-11T07:03:29.352Z,69.11
2018-06-11T07:05:59.021Z,69.38
2018-06-11T07:08:28.645Z,68.94
2018-06-11T07:10:58.312Z,69.04
2018-06-11T07:13:27.991Z,68.71
2018-06-11T07:15:57.616Z,67.75
2018-06-11T07:18:27.300Z,68.12
2018-06-11T07:20:57.003Z,68.01
2018-06-11T07:23:26.671Z,67.42
2018-06-11T07:25:56.344Z,67.92
2018-06-11T07:28:25.997Z,66.52
2018-06-11T07:30:55.649Z,66.62
2018-06-11T07:33:25.316Z,65.96
2018-06-11T07:35:54.934Z,66.00
2018-06-11T07:38:24.569Z,66.38
2018-06-11T07:40:54.284Z,65.36
2018-06-11T07:43:23.963Z,65.93
2018-06-11T07:45:53.593Z,65.49
2018-06-11T07:48:23.285Z,64.00
2018-06-11T07:50:52.998Z,63.57
2018-06-11T07:53:22.662Z,62.44
2018-06-11T07:55:52.363Z,63.20
2018-06-11T07:58:22.038Z,62.83
2018-06-11T08:00:51.685Z,63.40
2018-06-11T08:03:21.421Z,62.81
2018-06-11T08:05:51.080Z,61.88
2018-06-11T08:08:20.703Z,61.78
2018-06-11T08:10:51.379Z,61.60
2018-06-11T08:13:21.054Z,61.59
2018-06-11T08:15:50.749Z,61.94
2018-06-11T08:18:20.468Z,62.13
2018-06-11T08:20:50.127Z,60.79
2018-06-11T08:23:19.773Z,61.50
2018-06-11T08:25:49.477Z,61.19
2018-06-11T08:28:19.160Z,61.00
2018-06-11T08:30:48.848Z,59.59
2018-06-11T08:33:18.537Z,60.13
2018-06-11T08:35:48.192Z,61.05
2018-06-11T08:38:17.846Z,59.25
2018-06-11T08:40:47.535Z,59.34
2018-06-11T08:43:17.219Z,59.18
2018-06-11T08:45:46.902Z,59.43
2018-06-11T08:48:16.612Z,58.86
2018-06-11T08:50:46.259Z,57.57
2018-06-11T08:53:15.904Z,58.41
2018-06-11T08:55:45.591Z,58.87
2018-06-11T08:58:21.815Z,59.30
2018-06-11T09:00:51.509Z,57.20
2018-06-11T09:03:21.167Z,58.58
2018-06-11T09:05:50.817Z,58.32
2018-06-11T09:08:20.524Z,57.93
2018-06-11T09:10:50.175Z,57.85
2018-06-11T09:13:19.821Z,57.95
2018-06-11T09:15:49.500Z,57.41
2018-06-11T09:18:19.197Z,55.26
2018-06-11T09:20:48.818Z,54.46
2018-06-11T09:23:18.472Z,54.25
2018-06-11T09:25:48.135Z,56.64
2018-06-11T09:28:18.014Z,55.41
2018-06-11T09:30:47.696Z,54.43
2018-06-11T09:33:17.361Z,53.25
2018-06-11T09:35:47.008Z,52.97
2018-06-11T09:38:16.742Z,53.92
2018-06-11T09:40:46.411Z,53.05
2018-06-11T09:43:16.117Z,52.58
2018-06-11T09:45:45.748Z,54.06
2018-06-11T09:48:15.396Z,53.49
2018-06-11T09:50:45.097Z,55.10
2018-06-11T09:53:14.741Z,51.29
2018-06-11T09:55:44.435Z,53.64
2018-06-11T09:58:14.179Z,53.14
2018-06-11T10:00:43.828Z,50.73
2018-06-11T10:03:13.472Z,54.38
2018-06-11T10:05:43.175Z,51.49
2018-06-11T10:08:12.826Z,51.17
2018-06-11T10:10:42.472Z,51.66
2018-06-11T10:13:12.185Z,53.58
2018-06-11T10:15:41.839Z,53.30
2018-06-11T10:18:11.468Z,52.80
2018-06-11T10:20:41.124Z,51.27
2018-06-11T10:23:10.786Z,50.15
2018-06-11T10:25:40.424Z,48.50
2018-06-11T10:28:10.118Z,49.01
2018-06-11T10:30:39.781Z,50.52
2018-06-11T10:33:09.410Z,49.97
2018-06-11T10:35:39.080Z,50.21
2018-06-11T10:38:08.759Z,48.77
2018-06-11T10:40:38.400Z,48.60
2018-06-11T10:43:08.056Z,50.31
2018-06-11T10:45:37.677Z,50.00
2018-06-11T10:48:07.340Z,48.77
2018-06-11T10:50:37.065Z,47.88
2018-06-11T10:53:06.751Z,48.66
2018-06-11T10:55:36.378Z,47.02
2018-06-11T10:58:06.166Z,47.43
2018-06-11T11:00:35.823Z,47.65
2018-06-11T11:03:05.518Z,47.95
2018-06-11T11:05:35.138Z,48.43
2018-06-11T11:08:04.825Z,47.83
2018-06-11T11:10:34.476Z,48.33
2018-06-11T11:13:04.194Z,47.18
2018-06-11T11:15:34.086Z,46.42
2018-06-11T11:18:03.703Z,46.98
2018-06-11T11:20:33.356Z,47.09
2018-06-11T11:23:03.018Z,45.96
2018-06-11T11:25:32.628Z,47.74
2018-06-11T11:28:02.240Z,47.07
2018-06-11T11:30:31.915Z,46.82
2018-06-11T11:33:01.531Z,45.50
2018-06-11T11:35:31.193Z,45.90
2018-06-11T11:38:00.805Z,45.27
2018-06-11T11:40:30.453Z,45.91
2018-06-11T11:43:00.140Z,44.73
2018-06-11T11:45:29.757Z,46.44
2018-06-11T11:47:59.379Z,47.34
2018-06-11T11:50:29.053Z,46.14
2018-06-11T11:52:58.683Z,46.34
2018-06-11T11:55:28.328Z,43.90
2018-06-11T11:57:58.001Z,43.30
2018-06-11T12:00:27.633Z,43.94
2018-06-11T12:02:57.293Z,42.94
2018-06-11T12:05:26.909Z,46.03
2018-06-11T12:07:56.512Z,45.93
2018-06-11T12:10:26.181Z,43.06
2018-06-11T12:12:55.819Z,42.31
2018-06-11T12:15:25.459Z,42.66
2018-06-11T12:17:55.342Z,44.32
2018-06-11T12:20:24.948Z,44.54
2018-06-11T12:22:54.590Z,44.27
2018-06-11T12:25:24.277Z,43.02
2018-06-11T12:27:53.896Z,44.55
2018-06-11T12:30:23.532Z,42.18
2018-06-11T12:32:53.201Z,43.53
2018-06-11T12:35:22.837Z,44.17
2018-06-11T12:37:52.459Z,43.02
2018-06-11T12:40:22.119Z,44.04
2018-06-11T12:42:51.739Z,43.43
2018-06-11T12:45:21.351Z,41.75
2018-06-11T12:47:51.044Z,42.44
2018-06-11T12:50:20.690Z,42.22
2018-06-11T12:52:50.451Z,41.50
2018-06-11T12:55:20.004Z,42.46
2018-06-11T12:57:49.665Z,41.78
2018-06-11T13:00:19.544Z,42.04
2018-06-11T13:02:49.169Z,42.95
2018-06-11T13:05:18.787Z,41.59
2018-06-11T13:07:48.468Z,41.45
2018-06-11T13:10:18.145Z,40.34
2018-06-11T13:12:47.769Z,41.30
2018-06-11T13:15:17.519Z,41.70
2018-06-11T13:17:47.164Z,41.45
2018-06-11T13:20:16.799Z,41.07
2018-06-11T13:22:46.453Z,42.26
2018-06-11T13:25:16.084Z,42.48
2018-06-11T13:27:45.706Z,41.30
2018-06-11T13:30:15.422Z,40.83
2018-06-11T13:32:45.051Z,40.96
2018-06-11T13:35:14.740Z,40.64
2018-06-11T13:37:44.415Z,39.56
2018-06-11T13:40:14.056Z,41.62
2018-06-11T13:42:43.689Z,39.98
2018-06-11T13:45:13.361Z,40.73
2018-06-11T13:47:43.030Z,40.92
2018-06-11T13:50:12.714Z,39.95
2018-06-11T13:52:42.396Z,40.41
2018-06-11T13:55:12.014Z,39.84
2018-06-11T13:57:41.625Z,39.75
2018-06-11T14:00:11.329Z,38.83
2018-06-11T14:02:40.946Z,40.03
2018-06-11T14:05:10.557Z,41.25
2018-06-11T14:07:40.233Z,38.80
2018-06-11T14:10:09.866Z,38.64
2018-06-11T14:12:39.493Z,40.56
2018-06-11T14:15:09.167Z,38.78
2018-06-11T14:17:38.828Z,38.55
2018-06-11T14:20:08.454Z,39.89
2018-06-11T14:22:38.124Z,39.03
2018-06-11T14:25:07.759Z,38.50
2018-06-11T14:27:37.438Z,39.90
2018-06-11T14:30:07.129Z,42.02
2018-06-11T14:32:36.752Z,41.10
2018-06-11T14:35:06.396Z,40.42
2018-06-11T14:37:36.026Z,40.39
2018-06-11T14:40:05.655Z,40.42
2018-06-11T14:42:35.325Z,38.90
2018-06-11T14:45:05.252Z,38.41
2018-06-11T14:47:34.868Z,39.53
2018-06-11T14:50:04.592Z,40.19
2018-06-11T14:52:34.308Z,38.77
2018-06-11T14:55:04.016Z,42.08
2018-06-11T14:57:33.697Z,40.03
2018-06-11T15:00:03.400Z,40.90
2018-06-11T15:02:33.052Z,41.42
2018-06-11T15:05:02.719Z,41.73
2018-06-11T15:07:32.361Z,42.23
2018-06-11T15:10:02.030Z,43.33
2018-06-11T15:12:31.667Z,42.95
2018-06-11T15:15:01.256Z,42.51
2018-06-11T15:17:30.927Z,42.57
2018-06-11T15:20:00.563Z,43.25
2018-06-11T15:22:30.232Z,42.95
2018-06-11T15:24:59.889Z,42.01
2018-06-11T15:27:29.510Z,41.13
2018-06-11T15:29:59.155Z,41.77
2018-06-11T15:32:28.764Z,40.60
2018-06-11T15:34:58.364Z,41.20
2018-06-11T15:37:28.040Z,43.69
2018-06-11T15:39:57.677Z,42.08
2018-06-11T15:42:27.299Z,41.54
2018-06-11T15:44:56.977Z,42.19
2018-06-11T15:47:26.592Z,43.24
2018-06-11T15:49:56.256Z,43.72
2018-06-11T15:52:25.900Z,45.06
2018-06-11T15:54:55.524Z,43.23
2018-06-11T15:57:25.199Z,42.74
2018-06-11T15:59:54.830Z,43.21
2018-06-11T16:02:24.453Z,43.26
2018-06-11T16:04:54.112Z,41.73
2018-06-11T16:07:23.743Z,41.65
2018-06-11T16:09:53.371Z,42.14
2018-06-11T16:12:23.013Z,44.17
2018-06-11T16:14:52.648Z,43.28
2018-06-11T16:17:22.312Z,43.25
2018-06-11T16:19:51.969Z,43.07
2018-06-11T16:22:21.601Z,42.78
2018-06-11T16:24:51.303Z,44.07
2018-06-11T16:27:20.930Z,43.08
2018-06-11T16:29:50.572Z,44.50
2018-06-11T16:32:20.247Z,44.21
2018-06-11T16:34:49.894Z,42.69
2018-06-11T16:37:19.532Z,42.99
2018-06-11T16:39:49.211Z,43.50
2018-06-11T16:42:18.879Z,44.14
2018-06-11T16:44:48.528Z,43.42
2018-06-11T16:47:18.198Z,43.83
2018-06-11T16:49:47.848Z,54.42
2018-06-11T16:52:17.495Z,51.53
2018-06-11T16:54:47.188Z,50.19
2018-06-11T16:57:16.820Z,49.91
2018-06-11T16:59:46.461Z,48.75
2018-06-11T17:02:16.100Z,47.72
2018-06-11T17:04:45.739Z,48.64
2018-06-11T17:07:15.428Z,48.95
2018-06-11T17:09:45.108Z,47.21
2018-06-11T17:12:14.729Z,48.05
2018-06-11T17:14:44.380Z,47.94
2018-06-11T17:17:14.145Z,49.77
2018-06-11T17:19:43.773Z,48.57
2018-06-11T17:22:13.403Z,47.81
2018-06-11T17:24:43.080Z,47.12
2018-06-11T17:27:12.712Z,48.49
2018-06-11T17:29:42.391Z,48.00
2018-06-11T17:32:12.058Z,47.86
2018-06-11T17:34:41.692Z,48.36
2018-06-11T17:37:11.472Z,48.70
2018-06-11T17:39:41.191Z,48.33
2018-06-11T17:42:10.831Z,47.83
2018-06-11T17:44:40.434Z,48.22
2018-06-11T17:47:10.156Z,48.57
2018-06-11T17:49:39.771Z,48.09
2018-06-11T17:52:09.388Z,49.05
2018-06-11T17:54:39.083Z,48.33
2018-06-11T17:57:08.824Z,48.38
2018-06-11T17:59:38.416Z,48.28
2018-06-11T18:02:08.318Z,48.67
2018-06-11T18:04:37.954Z,48.61
2018-06-11T18:07:08.000Z,50.26
2018-06-11T18:09:37.670Z,48.97
2018-06-11T18:12:07.418Z,48.40
2018-06-11T18:14:37.151Z,49.25
2018-06-11T18:17:06.838Z,48.48
2018-06-11T18:19:36.489Z,48.61
2018-06-11T18:22:06.140Z,48.82
2018-06-11T18:24:35.748Z,48.92
2018-06-11T18:27:05.409Z,49.56
2018-06-11T18:29:35.052Z,48.72
2018-06-11T18:32:04.713Z,48.96
2018-06-11T18:34:34.339Z,49.65
2018-06-11T18:37:04.012Z,50.02
2018-06-11T18:39:33.632Z,49.65
2018-06-11T18:42:03.319Z,49.04
2018-06-11T18:44:32.976Z,48.94
2018-06-11T18:47:02.603Z,48.66
2018-06-11T18:49:32.292Z,49.27
2018-06-11T18:52:01.941Z,49.25
2018-06-11T18:54:31.566Z,48.85
2018-06-11T18:57:01.227Z,48.02
2018-06-11T18:59:30.911Z,47.28
2018-06-11T19:02:00.548Z,48.14
2018-06-11T19:04:30.221Z,49.15
2018-06-11T19:06:59.858Z,48.93
2018-06-11T19:09:29.489Z,47.59
2018-06-11T19:11:59.179Z,48.36
2018-06-11T19:14:28.842Z,48.43
2018-06-11T19:16:58.564Z,48.69
2018-06-11T19:19:28.214Z,48.65
2018-06-11T19:21:57.849Z,49.49
2018-06-11T19:24:27.522Z,49.74
2018-06-11T19:26:57.155Z,50.01
2018-06-11T19:29:26.790Z,49.85
2018-06-11T19:31:56.470Z,50.13
2018-06-11T19:34:26.109Z,50.70
2018-06-11T19:36:55.752Z,51.07
2018-06-11T19:39:25.440Z,51.32
2018-06-11T19:41:55.080Z,51.52
2018-06-11T19:44:24.765Z,51.78
2018-06-11T19:46:54.405Z,52.05
2018-06-11T19:49:24.086Z,52.34
2018-06-11T19:51:53.740Z,52.10
2018-06-11T19:54:23.371Z,51.83
2018-06-11T19:56:53.069Z,51.37
2018-06-11T19:59:22.703Z,52.01
2018-06-11T20:01:52.321Z,52.22
2018-06-11T20:04:22.021Z,52.29
2018-06-11T20:06:51.666Z,51.99
2018-06-11T20:09:21.338Z,52.36
2018-06-11T20:11:51.064Z,52.40
2018-06-11T20:14:20.683Z,52.53
2018-06-11T20:16:56.604Z,52.83
2018-06-11T20:19:26.326Z,53.12
2018-06-11T20:21:55.919Z,53.16
2018-06-11T20:24:25.853Z,53.99
2018-06-11T20:26:55.496Z,54.13
2018-06-11T20:29:25.204Z,54.53
2018-06-11T20:31:54.865Z,54.52
2018-06-11T20:34:24.556Z,54.84
2018-06-11T20:36:54.235Z,55.33
2018-06-11T20:39:23.851Z,55.75
2018-06-11T20:41:53.485Z,55.84
2018-06-11T20:44:23.194Z,55.67
2018-06-11T20:46:52.868Z,55.90
2018-06-11T20:49:22.533Z,56.31
2018-06-11T20:51:52.191Z,56.31
2018-06-11T20:54:21.821Z,56.76
2018-06-11T20:56:51.445Z,56.79
2018-06-11T20:59:21.144Z,56.19
2018-06-11T21:01:50.791Z,57.23
2018-06-11T21:04:20.436Z,56.64
2018-06-11T21:06:50.100Z,57.28
2018-06-11T21:09:19.752Z,56.96
2018-06-11T21:11:49.391Z,57.40
2018-06-11T21:14:19.092Z,57.14
2018-06-11T21:16:48.728Z,57.61
2018-06-11T21:19:18.412Z,57.95
2018-06-11T21:21:48.060Z,57.43
2018-06-11T21:24:17.692Z,57.48
2018-06-11T21:26:47.378Z,57.43
2018-06-11T21:29:17.022Z,56.98
2018-06-11T21:31:46.660Z,57.42
2018-06-11T21:34:16.321Z,57.52
2018-06-11T21:36:45.973Z,57.77
2018-06-11T21:39:15.611Z,57.30
2018-06-11T21:41:45.326Z,57.34
2018-06-11T21:44:14.978Z,58.05
2018-06-11T21:46:44.631Z,58.41
2018-06-11T21:49:14.346Z,58.59
2018-06-11T21:51:44.012Z,58.62
2018-06-11T21:54:13.678Z,58.80
2018-06-11T21:56:43.436Z,59.43
2018-06-11T21:59:13.096Z,59.10
2018-06-11T22:01:42.822Z,59.60
2018-06-11T22:04:12.533Z,59.65
2018-06-11T22:06:42.190Z,60.27
2018-06-11T22:09:11.935Z,60.39
2018-06-11T22:11:41.632Z,60.29
2018-06-11T22:14:11.303Z,61.18
2018-06-11T22:16:40.979Z,60.64
2018-06-11T22:19:10.718Z,61.52
2018-06-11T22:21:40.427Z,61.61
2018-06-11T22:24:10.115Z,61.39
2018-06-11T22:26:39.766Z,62.16
2018-06-11T22:29:09.411Z,62.18
2018-06-11T22:31:39.135Z,62.01
2018-06-11T22:34:08.801Z,62.44
2018-06-11T22:36:38.454Z,63.26
2018-06-11T22:39:08.842Z,63.75
2018-06-11T22:41:38.516Z,63.90
2018-06-11T22:44:08.230Z,64.52
2018-06-11T22:46:37.901Z,64.96
2018-06-11T22:49:07.551Z,64.75
2018-06-11T22:51:37.347Z,64.98
2018-06-11T22:54:07.017Z,65.21
2018-06-11T22:56:36.694Z,65.67
2018-06-11T22:59:06.363Z,66.21
2018-06-11T23:01:36.011Z,65.63
2018-06-11T23:04:06.227Z,65.91
2018-06-11T23:06:35.926Z,65.62
2018-06-11T23:09:07.789Z,66.07
2018-06-11T23:11:37.534Z,66.60
2018-06-11T23:14:07.175Z,66.50
2018-06-11T23:16:36.819Z,67.06
2018-06-11T23:19:06.579Z,67.32
2018-06-11T23:21:36.234Z,67.66
2018-06-11T23:24:06.023Z,67.57
2018-06-11T23:26:35.715Z,67.29
2018-06-11T23:29:05.422Z,67.06
2018-06-11T23:31:35.127Z,67.36
2018-06-11T23:34:04.776Z,67.97
2018-06-11T23:36:34.423Z,67.98
2018-06-11T23:39:05.103Z,67.64
2018-06-11T23:41:34.764Z,67.60
2018-06-11T23:44:04.418Z,68.23
2018-06-11T23:46:34.103Z,68.38
2018-06-11T23:49:03.764Z,67.86
2018-06-11T23:51:33.406Z,68.53
2018-06-11T23:54:03.105Z,68.84
2018-06-11T23:56:32.778Z,68.45
2018-06-11T23:59:02.432Z,68.88
